KAFN/AFN METAR and TAF weather

Enter ICAO airport designator
Station Type Date Time Source
KAFN METAR 2021/07/28 03:59 UTC NOAA

KAFN 280359Z AUTO 00000KT 5SM BR SCT005 BKN011 OVC070 19/17 A2996 RMK AO2 T01890172


Station Type Date Time Source
KAFN Decoded METAR 2021/07/28 03:59 UTC NOAA

JAFFREY MUNI-SILVER RANCH, NH, United States (KAFN) 42-48N 72-00W 313M
Jul 27, 2021 - 11:59 PM EDT / 2021.07.28 0359 UTC
Wind: Calm:0
Visibility: 5 mile(s):0
Sky conditions: overcast
Weather: mist
Temperature: 66.0 F (18.9 C)
Dew Point: 63.0 F (17.2 C)
Relative Humidity: 89%
Pressure (altimeter): 29.96 in. Hg (1014 hPa)
ob: KAFN 280359Z AUTO 00000KT 5SM BR SCT005 BKN011 OVC070 19/17 A2996 RMK AO2 T01890172
cycle: 4

Station Type Date Time Source
KAFN TAF UTC NOAA

Error!

Example: see airport list